Time;durP1;ratioP1;P1;durP2;ratioP2;P2;SDS_P1;SDS_P2;PMS_P1;PMS_P2;Temp;Humidity;BMP_temperature;BMP_pressure;BME280_temperature;BME280_humidity;BME280_pressure;Samples;Min_cycle;Max_cycle;Signal;HPM_P1;HPM_P2
2023/03/28 00:01:51;;;;;;;5.93;2.30;;;25.10;69.10;;;;;;5071450;28;20238;-71
2023/03/28 00:04:21;;;;;;;6.47;2.67;;;24.90;68.40;;;;;;5070428;28;20641;-71
2023/03/28 00:06:52;;;;;;;4.87;2.33;;;25.00;68.50;;;;;;5074086;28;20179;-68
2023/03/28 00:09:20;;;;;;;12.43;2.73;;;25.10;68.70;;;;;;5069545;28;20215;-72
2023/03/28 00:11:48;;;;;;;8.20;2.47;;;25.30;68.60;;;;;;5069967;28;20191;-69
2023/03/28 00:14:15;;;;;;;5.53;2.23;;;25.30;68.40;;;;;;5072254;28;20210;-71
2023/03/28 00:16:46;;;;;;;9.43;2.80;;;25.40;67.20;;;;;;5071721;28;20229;-67
2023/03/28 00:19:16;;;;;;;4.40;3.20;;;25.40;67.30;;;;;;5071455;28;20657;-67
2023/03/28 00:21:46;;;;;;;10.30;2.60;;;25.50;65.50;;;;;;5064317;28;20176;-68
2023/03/28 00:24:15;;;;;;;10.03;2.83;;;25.70;66.20;;;;;;5076067;28;20230;-68
2023/03/28 00:26:44;;;;;;;8.20;2.53;;;25.80;66.30;;;;;;5080808;28;20179;-68
2023/03/28 00:29:19;;;;;;;9.63;2.50;;;25.80;65.40;;;;;;5072109;28;20711;-66
2023/03/28 00:31:48;;;;;;;9.93;2.77;;;25.80;65.80;;;;;;5072594;28;20225;-67
2023/03/28 00:34:16;;;;;;;5.30;2.57;;;25.80;65.40;;;;;;5075810;28;20179;-66
2023/03/28 00:36:43;;;;;;;5.97;1.87;;;25.80;63.10;;;;;;5073883;28;20179;-69
2023/03/28 00:39:12;;;;;;;6.97;2.77;;;26.00;63.80;;;;;;5076916;28;20642;-68
2023/03/28 00:41:42;;;;;;;10.00;3.70;;;26.10;64.30;;;;;;5076327;28;20645;-68
2023/03/28 00:44:46;;;;;;;5.57;2.47;;;26.20;67.10;;;;;;5068234;28;20206;-67
2023/03/28 00:47:30;;;;;;;11.47;3.47;;;26.20;66.70;;;;;;5064463;28;20210;-67
2023/03/28 00:50:04;;;;;;;8.30;2.50;;;25.90;65.10;;;;;;5073535;28;20241;-67
2023/03/28 00:52:39;;;;;;;6.60;2.70;;;25.90;64.90;;;;;;5076072;28;20179;-66
2023/03/28 00:55:13;;;;;;;6.50;2.50;;;25.90;66.00;;;;;;5076223;28;20174;-67
2023/03/28 00:57:41;;;;;;;14.23;2.77;;;25.80;67.00;;;;;;5076097;28;20649;-67
2023/03/28 01:00:15;;;;;;;5.93;3.30;;;25.90;68.20;;;;;;5075957;28;20590;-66
2023/03/28 01:02:49;;;;;;;8.27;3.10;;;25.90;68.00;;;;;;5080133;28;20183;-68
2023/03/28 01:05:28;;;;;;;6.67;2.53;;;25.80;68.00;;;;;;5080651;28;20630;-66
2023/03/28 01:08:06;;;;;;;6.20;2.57;;;25.90;68.20;;;;;;5080229;28;20218;-70
2023/03/28 01:10:33;;;;;;;13.03;3.20;;;25.90;67.00;;;;;;5082421;28;20207;-67
2023/03/28 01:13:02;;;;;;;6.90;2.60;;;25.80;67.60;;;;;;5085353;28;20179;-69
2023/03/28 01:15:30;;;;;;;12.87;2.87;;;25.90;67.50;;;;;;5075976;28;20183;-66
2023/03/28 01:18:09;;;;;;;7.33;2.97;;;25.90;66.90;;;;;;5076508;28;20175;-68
2023/03/28 01:21:09;;;;;;;13.47;3.13;;;25.90;66.90;;;;;;5073279;28;20175;-68
2023/03/28 01:24:25;;;;;;;9.83;2.57;;;25.90;66.50;;;;;;5051498;28;20184;-68
2023/03/28 01:27:25;;;;;;;9.07;2.80;;;25.80;66.20;;;;;;5075692;28;20179;-68
2023/03/28 01:30:25;;;;;;;7.77;2.87;;;25.70;66.00;;;;;;5063411;28;20195;-66
2023/03/28 01:33:28;;;;;;;6.90;2.30;;;25.60;66.20;;;;;;5086134;28;20248;-67
2023/03/28 01:36:16;;;;;;;6.47;1.90;;;25.50;66.50;;;;;;5075702;28;20174;-67
2023/03/28 01:38:51;;;;;;;5.70;2.23;;;25.40;65.80;;;;;;5075796;28;20648;-66
2023/03/28 01:41:25;;;;;;;3.70;2.07;;;25.30;66.90;;;;;;5078905;28;20177;-68
2023/03/28 01:44:10;;;;;;;5.73;2.10;;;25.30;66.00;;;;;;5062614;28;20203;-68
2023/03/28 01:46:51;;;;;;;6.27;2.17;;;25.20;66.80;;;;;;5075605;28;20167;-69
2023/03/28 01:49:47;;;;;;;11.20;1.70;;;25.30;67.20;;;;;;5074763;28;20695;-68
2023/03/28 01:52:24;;;;;;;7.87;1.97;;;25.30;67.20;;;;;;5074492;28;20612;-68
2023/03/28 01:55:15;;;;;;;5.27;2.13;;;25.40;67.20;;;;;;5071212;28;20188;-68
2023/03/28 01:58:27;;;;;;;5.57;1.90;;;25.50;67.20;;;;;;5069574;28;20187;-67
2023/03/28 02:01:12;;;;;;;4.37;2.50;;;25.60;66.90;;;;;;5051829;28;20213;-66
2023/03/28 02:03:46;;;;;;;3.13;2.13;;;25.50;67.30;;;;;;5083949;28;20215;-70
2023/03/28 02:06:16;;;;;;;6.03;1.80;;;25.60;67.00;;;;;;5076254;28;20190;-70
2023/03/28 02:08:45;;;;;;;4.33;2.13;;;25.80;67.50;;;;;;5083368;28;20235;-69
2023/03/28 02:11:13;;;;;;;3.10;1.90;;;25.80;66.90;;;;;;5071480;28;20184;-68
2023/03/28 02:13:46;;;;;;;7.57;1.67;;;25.70;66.20;;;;;;5066991;28;20179;-66
2023/03/28 02:16:17;;;;;;;2.40;1.40;;;25.60;66.90;;;;;;5066119;28;20274;-74
2023/03/28 02:18:50;;;;;;;5.60;1.80;;;25.50;65.90;;;;;;5076563;28;20246;-68
2023/03/28 02:21:24;;;;;;;7.77;1.73;;;25.50;66.50;;;;;;5076624;28;20202;-66
2023/03/28 02:23:54;;;;;;;3.43;1.57;;;25.50;67.00;;;;;;5077828;28;20189;-70
2023/03/28 02:26:23;;;;;;;6.00;1.60;;;25.40;66.30;;;;;;5075867;28;20653;-67
2023/03/28 02:28:55;;;;;;;5.63;3.63;;;25.40;67.10;;;;;;5073042;28;20222;-68
2023/03/28 02:31:23;;;;;;;3.73;1.90;;;25.40;68.40;;;;;;5075798;28;20199;-67
2023/03/28 02:33:52;;;;;;;7.73;2.10;;;25.40;67.20;;;;;;5075023;28;20189;-68
2023/03/28 02:36:31;;;;;;;4.10;1.73;;;25.30;67.20;;;;;;5074088;28;20189;-68
2023/03/28 02:39:38;;;;;;;5.00;1.67;;;25.30;67.40;;;;;;5074790;28;20553;-68
2023/03/28 02:42:30;;;;;;;6.20;1.67;;;25.30;68.60;;;;;;5065095;28;20219;-68
2023/03/28 02:45:12;;;;;;;2.63;1.73;;;25.30;69.30;;;;;;5062665;28;20203;-67
2023/03/28 02:47:57;;;;;;;4.97;1.97;;;25.20;70.00;;;;;;5086532;28;20207;-70
2023/03/28 02:50:33;;;;;;;5.77;4.10;;;25.10;70.10;;;;;;5066624;28;20215;-73
2023/03/28 02:53:21;;;;;;;3.50;1.80;;;25.00;70.50;;;;;;5071443;28;20175;-71
2023/03/28 02:56:00;;;;;;;6.20;2.20;;;24.90;69.30;;;;;;5074370;28;20230;-69
2023/03/28 02:58:54;;;;;;;4.60;1.80;;;24.90;69.60;;;;;;5073402;28;20213;-67
2023/03/28 03:01:28;;;;;;;4.20;1.70;;;24.90;69.40;;;;;;5050729;28;21391;-68
2023/03/28 03:03:57;;;;;;;5.30;1.97;;;24.90;69.50;;;;;;5073253;28;20190;-67
2023/03/28 03:06:24;;;;;;;7.70;2.00;;;24.90;69.40;;;;;;5065811;28;20267;-69
2023/03/28 03:08:51;;;;;;;2.90;1.73;;;24.80;69.30;;;;;;5072664;28;20772;-68
2023/03/28 03:11:20;;;;;;;5.97;1.90;;;24.90;69.10;;;;;;5073130;28;20187;-70
2023/03/28 03:13:47;;;;;;;4.47;2.10;;;24.70;69.50;;;;;;5070740;28;20259;-72
2023/03/28 03:16:14;;;;;;;3.17;1.73;;;24.60;70.00;;;;;;5077559;28;20205;-71
2023/03/28 03:18:42;;;;;;;5.40;1.67;;;24.50;70.30;;;;;;5070966;28;20723;-66
2023/03/28 03:21:09;;;;;;;8.17;1.73;;;24.40;70.80;;;;;;5069214;28;20225;-70
2023/03/28 03:23:36;;;;;;;6.50;2.07;;;24.30;71.40;;;;;;5067999;28;20179;-67
2023/03/28 03:26:04;;;;;;;7.37;2.00;;;24.30;72.20;;;;;;5068134;28;20534;-70
2023/03/28 03:28:32;;;;;;;5.87;2.27;;;24.20;72.60;;;;;;5066568;28;20187;-69
2023/03/28 03:30:59;;;;;;;6.23;1.83;;;24.20;73.20;;;;;;5069479;28;20179;-70
2023/03/28 03:33:27;;;;;;;9.30;1.90;;;24.10;73.50;;;;;;5065445;28;20183;-69
2023/03/28 03:35:54;;;;;;;3.60;1.77;;;24.10;74.00;;;;;;5067747;28;20653;-66
2023/03/28 03:38:21;;;;;;;6.20;1.93;;;24.10;74.10;;;;;;5073116;28;20235;-76
2023/03/28 03:40:49;;;;;;;7.50;1.90;;;24.20;74.40;;;;;;5072614;28;20658;-71
2023/03/28 03:43:16;;;;;;;8.63;2.20;;;24.20;75.50;;;;;;5071610;28;20183;-75
2023/03/28 03:45:46;;;;;;;5.80;1.83;;;24.10;76.40;;;;;;5062170;28;20378;-71
2023/03/28 03:48:14;;;;;;;8.93;1.97;;;24.10;76.80;;;;;;5056385;28;20270;-75
2023/03/28 03:50:41;;;;;;;4.17;1.83;;;23.90;77.30;;;;;;5069982;28;20747;-67
2023/03/28 03:53:09;;;;;;;6.87;2.10;;;23.80;78.30;;;;;;5070183;28;20579;-71
2023/03/28 03:55:39;;;;;;;3.73;1.87;;;23.70;79.10;;;;;;5071575;28;20187;-67
2023/03/28 03:58:07;;;;;;;5.70;2.13;;;23.40;79.60;;;;;;5061989;28;20732;-71
2023/03/28 04:00:36;;;;;;;5.13;1.90;;;23.40;80.60;;;;;;5071806;28;20520;-74
2023/03/28 04:03:03;;;;;;;4.40;2.10;;;23.40;81.10;;;;;;5073231;28;20720;-67
2023/03/28 04:05:31;;;;;;;5.33;1.97;;;23.30;81.30;;;;;;5068984;28;20646;-67
2023/03/28 04:08:00;;;;;;;5.40;1.67;;;23.30;81.60;;;;;;5070424;28;20223;-69
2023/03/28 04:10:27;;;;;;;3.50;1.80;;;23.20;81.20;;;;;;5070929;28;20262;-73
2023/03/28 04:12:55;;;;;;;5.63;1.97;;;23.10;81.20;;;;;;5066534;28;20180;-73
2023/03/28 04:15:22;;;;;;;3.93;2.00;;;23.10;81.60;;;;;;5069956;28;20178;-71
2023/03/28 04:17:51;;;;;;;7.20;2.03;;;23.00;81.10;;;;;;5071947;28;20190;-67
2023/03/28 04:20:19;;;;;;;5.53;2.30;;;23.00;81.70;;;;;;5065328;28;20179;-68
2023/03/28 04:22:47;;;;;;;9.53;2.20;;;22.90;82.30;;;;;;5071928;28;20664;-68
2023/03/28 04:25:16;;;;;;;9.40;2.50;;;22.90;82.70;;;;;;5070122;28;20658;-65
2023/03/28 04:27:47;;;;;;;3.57;2.27;;;22.80;83.10;;;;;;5070621;28;20194;-66
2023/03/28 04:30:16;;;;;;;4.87;2.30;;;22.70;83.20;;;;;;5068199;28;20288;-66
2023/03/28 04:32:48;;;;;;;4.77;2.60;;;22.70;84.00;;;;;;5068828;28;20171;-69
2023/03/28 04:35:15;;;;;;;22.70;14.53;;;22.50;84.80;;;;;;5069301;28;20233;-67
2023/03/28 04:37:43;;;;;;;3.67;2.57;;;22.50;85.90;;;;;;5066476;28;20250;-65
2023/03/28 04:40:11;;;;;;;6.57;3.27;;;22.40;86.20;;;;;;5067581;28;20507;-69
2023/03/28 04:42:39;;;;;;;7.77;3.37;;;22.30;86.90;;;;;;5070353;28;20185;-66
2023/03/28 04:45:08;;;;;;;7.23;2.80;;;22.30;87.50;;;;;;5069827;28;20187;-70
2023/03/28 04:47:38;;;;;;;7.73;2.80;;;22.30;88.10;;;;;;5071402;28;20241;-66
2023/03/28 04:50:11;;;;;;;5.37;3.03;;;22.20;88.10;;;;;;5071645;28;20217;-66
2023/03/28 04:52:39;;;;;;;7.03;3.00;;;22.00;88.70;;;;;;5067891;28;20179;-67
2023/03/28 04:55:07;;;;;;;11.60;3.63;;;21.80;88.50;;;;;;5072711;28;20274;-65
2023/03/28 04:57:37;;;;;;;6.03;2.43;;;21.70;88.70;;;;;;5071117;28;20678;-65
2023/03/28 05:00:08;;;;;;;5.67;2.77;;;21.50;88.90;;;;;;5071105;28;20179;-66
2023/03/28 05:02:35;;;;;;;7.43;2.80;;;21.40;88.60;;;;;;5069716;28;20194;-67
2023/03/28 05:05:03;;;;;;;8.03;3.33;;;21.30;89.00;;;;;;5070763;28;20175;-65
2023/03/28 05:07:30;;;;;;;8.40;3.17;;;21.30;89.60;;;;;;5074890;28;20211;-65
2023/03/28 05:09:57;;;;;;;11.17;3.17;;;21.20;89.70;;;;;;5075796;28;20211;-65
2023/03/28 05:12:25;;;;;;;7.13;3.20;;;21.10;90.00;;;;;;5069421;28;20598;-66
2023/03/28 05:14:52;;;;;;;17.60;3.40;;;21.00;90.10;;;;;;5069843;28;20192;-64
2023/03/28 05:17:20;;;;;;;8.80;3.50;;;21.00;90.20;;;;;;5069823;28;20262;-64
2023/03/28 05:19:47;;;;;;;9.23;3.03;;;20.90;90.50;;;;;;5066162;28;20613;-63
2023/03/28 05:22:14;;;;;;;4.93;2.77;;;20.80;90.60;;;;;;5064266;28;20263;-65
2023/03/28 05:24:42;;;;;;;9.17;3.27;;;20.80;90.70;;;;;;5075256;28;20713;-66
2023/03/28 05:27:09;;;;;;;7.77;3.77;;;20.80;90.90;;;;;;5071610;28;20273;-64
2023/03/28 05:29:36;;;;;;;11.43;3.23;;;20.90;91.20;;;;;;5072232;28;20580;-67
2023/03/28 05:32:04;;;;;;;8.10;2.93;;;21.00;91.10;;;;;;5072000;28;20180;-69
2023/03/28 05:34:33;;;;;;;8.47;3.33;;;21.00;90.90;;;;;;5074205;28;20653;-65
2023/03/28 05:37:00;;;;;;;9.50;3.87;;;21.00;91.10;;;;;;5074589;28;20183;-65
2023/03/28 05:39:28;;;;;;;6.00;3.43;;;21.20;91.20;;;;;;5071484;28;20612;-64
2023/03/28 05:41:55;;;;;;;11.10;3.80;;;21.20;91.20;;;;;;5066261;28;20229;-63
2023/03/28 05:44:23;;;;;;;9.67;3.30;;;21.20;91.00;;;;;;5061639;28;20183;-65
2023/03/28 05:46:50;;;;;;;9.60;3.10;;;21.20;91.00;;;;;;5070814;28;20384;-64
2023/03/28 05:49:17;;;;;;;9.03;3.60;;;21.20;91.10;;;;;;5077572;28;20206;-70
2023/03/28 05:51:45;;;;;;;6.70;2.63;;;21.10;91.00;;;;;;5094694;28;20212;-64
2023/03/28 05:54:12;;;;;;;4.33;2.70;;;21.10;90.90;;;;;;5076245;28;20186;-65
2023/03/28 05:56:40;;;;;;;7.10;3.03;;;21.00;90.80;;;;;;5072798;28;20284;-62
2023/03/28 05:59:07;;;;;;;7.20;3.00;;;21.10;91.00;;;;;;5074929;28;20183;-64
2023/03/28 06:01:35;;;;;;;4.40;3.07;;;21.20;91.30;;;;;;5072790;28;20175;-65
2023/03/28 06:04:04;;;;;;;8.03;3.03;;;21.10;90.90;;;;;;5072558;28;20177;-64
2023/03/28 06:06:33;;;;;;;6.90;3.13;;;21.00;90.80;;;;;;5083162;28;20187;-64
2023/03/28 06:09:00;;;;;;;6.87;3.20;;;21.00;91.10;;;;;;5073829;28;20241;-65
2023/03/28 06:11:27;;;;;;;6.20;3.17;;;21.10;91.10;;;;;;5074861;28;20598;-65
2023/03/28 06:13:55;;;;;;;5.70;2.90;;;21.10;91.10;;;;;;5067116;28;20710;-65
2023/03/28 06:16:23;;;;;;;5.33;3.00;;;21.10;91.10;;;;;;5074807;28;20236;-64
2023/03/28 06:18:51;;;;;;;7.40;3.93;;;21.10;91.10;;;;;;5072831;28;20322;-64
2023/03/28 06:21:18;;;;;;;8.43;3.23;;;21.20;91.40;;;;;;5071590;28;20205;-65
2023/03/28 06:23:46;;;;;;;4.03;2.73;;;21.20;91.30;;;;;;5072476;28;20190;-65
2023/03/28 06:26:13;;;;;;;4.97;2.63;;;21.10;91.00;;;;;;5072140;28;20179;-65
2023/03/28 06:28:40;;;;;;;6.33;3.23;;;21.10;90.90;;;;;;5072725;28;20679;-64
2023/03/28 06:31:09;;;;;;;5.13;2.70;;;21.10;90.90;;;;;;5067656;28;20183;-64
2023/03/28 06:33:39;;;;;;;4.63;2.90;;;21.00;90.80;;;;;;5070608;28;20175;-66
2023/03/28 06:36:08;;;;;;;4.37;3.00;;;21.00;90.80;;;;;;5073819;28;20187;-64
2023/03/28 06:38:35;;;;;;;4.53;2.63;;;20.90;90.60;;;;;;5087256;28;20184;-62
2023/03/28 06:41:03;;;;;;;3.30;2.50;;;20.80;90.80;;;;;;5065398;28;20245;-65
2023/03/28 06:43:31;;;;;;;3.30;2.50;;;20.90;90.90;;;;;;5068272;28;20253;-64
2023/03/28 06:45:58;;;;;;;4.27;2.83;;;20.90;91.00;;;;;;5076855;28;20187;-63
2023/03/28 06:48:30;;;;;;;4.80;2.80;;;21.00;91.10;;;;;;5071968;28;20217;-65
2023/03/28 06:50:58;;;;;;;3.33;2.57;;;21.00;91.00;;;;;;5069355;28;20206;-64
2023/03/28 06:53:26;;;;;;;9.37;3.30;;;20.90;91.00;;;;;;5069006;28;20190;-63
2023/03/28 06:55:54;;;;;;;8.30;2.90;;;20.90;91.00;;;;;;5070870;28;20541;-64
2023/03/28 06:58:22;;;;;;;4.53;2.77;;;21.00;91.20;;;;;;5071890;28;20167;-63
2023/03/28 07:00:52;;;;;;;5.30;2.80;;;21.00;91.00;;;;;;5072881;28;20179;-65
2023/03/28 07:03:19;;;;;;;3.93;2.70;;;20.90;90.90;;;;;;5069914;28;20259;-63
2023/03/28 07:05:47;;;;;;;4.23;2.60;;;20.80;90.60;;;;;;5068048;28;20645;-63
2023/03/28 07:08:14;;;;;;;5.03;2.33;;;20.80;90.80;;;;;;5072656;28;20611;-63
2023/03/28 07:10:42;;;;;;;5.20;2.80;;;20.80;90.80;;;;;;5071163;28;20218;-62
2023/03/28 07:13:10;;;;;;;7.70;2.80;;;20.80;90.80;;;;;;5073515;28;20203;-62
2023/03/28 07:15:38;;;;;;;2.80;2.20;;;20.80;90.90;;;;;;5070963;28;20179;-63
2023/03/28 07:18:09;;;;;;;3.83;2.60;;;20.80;90.90;;;;;;5072173;28;20227;-64
2023/03/28 07:20:40;;;;;;;4.17;2.73;;;20.80;90.90;;;;;;5070979;28;20770;-65
2023/03/28 07:23:07;;;;;;;5.57;3.33;;;20.80;91.00;;;;;;5068243;28;20185;-64
2023/03/28 07:25:35;;;;;;;3.97;2.97;;;20.80;90.90;;;;;;5072461;28;20277;-63
2023/03/28 07:28:02;;;;;;;4.23;2.63;;;20.80;91.20;;;;;;5071342;28;20179;-65
2023/03/28 07:30:30;;;;;;;4.83;2.67;;;20.60;90.90;;;;;;5073119;28;20210;-65
2023/03/28 07:32:57;;;;;;;3.87;3.30;;;20.50;90.90;;;;;;5072137;28;20257;-63
2023/03/28 07:35:25;;;;;;;3.73;3.27;;;20.50;91.00;;;;;;5073364;28;20191;-62
2023/03/28 07:37:52;;;;;;;3.30;2.53;;;20.50;90.90;;;;;;5072014;28;20210;-63
2023/03/28 07:40:20;;;;;;;3.23;2.67;;;20.50;91.00;;;;;;5073410;28;20183;-63
2023/03/28 07:42:48;;;;;;;3.00;2.80;;;20.50;91.00;;;;;;5067777;28;20594;-62
2023/03/28 07:45:16;;;;;;;3.73;2.63;;;20.50;91.00;;;;;;5073209;28;20549;-63
2023/03/28 07:47:44;;;;;;;4.83;2.80;;;20.50;91.10;;;;;;5069035;28;20191;-61
2023/03/28 07:50:11;;;;;;;4.10;2.60;;;20.50;91.00;;;;;;5072633;28;20230;-64
2023/03/28 07:52:44;;;;;;;6.13;2.70;;;20.50;90.90;;;;;;5071639;28;20190;-62
2023/03/28 07:55:13;;;;;;;5.03;2.97;;;20.50;90.80;;;;;;5068574;28;20244;-66
2023/03/28 07:57:43;;;;;;;3.07;2.60;;;20.50;90.80;;;;;;5067262;28;20198;-68
2023/03/28 08:00:14;;;;;;;6.27;2.80;;;20.50;90.80;;;;;;5073168;28;20183;-65
2023/03/28 08:02:42;;;;;;;3.87;2.73;;;20.40;90.70;;;;;;5068665;28;20177;-64
2023/03/28 08:05:10;;;;;;;4.13;2.63;;;20.40;90.80;;;;;;5072390;28;20183;-70
2023/03/28 08:07:37;;;;;;;4.80;2.93;;;20.40;90.70;;;;;;5072688;28;20227;-66
2023/03/28 08:10:05;;;;;;;4.03;2.63;;;20.40;90.90;;;;;;5072881;28;20655;-70
2023/03/28 08:12:32;;;;;;;4.67;2.73;;;20.40;90.80;;;;;;5070921;28;20183;-65
2023/03/28 08:15:00;;;;;;;4.47;2.70;;;20.40;90.90;;;;;;5072970;28;20542;-64
2023/03/28 08:17:27;;;;;;;4.43;2.73;;;20.40;90.90;;;;;;5064964;28;20649;-67
2023/03/28 08:19:55;;;;;;;3.37;2.83;;;20.40;90.80;;;;;;5065195;28;20699;-64
2023/03/28 08:22:24;;;;;;;3.27;2.93;;;20.40;90.80;;;;;;5069648;28;20296;-64
2023/03/28 08:24:55;;;;;;;4.23;2.97;;;20.40;90.70;;;;;;5064429;28;20188;-67
2023/03/28 08:27:22;;;;;;;3.50;2.70;;;20.40;90.70;;;;;;5069932;28;20321;-83
2023/03/28 08:29:50;;;;;;;3.10;2.80;;;20.40;90.60;;;;;;5073748;28;20293;-82
2023/03/28 08:32:17;;;;;;;2.80;2.57;;;20.40;90.70;;;;;;5078974;28;20637;-79
2023/03/28 08:34:45;;;;;;;4.27;2.60;;;20.30;90.40;;;;;;5072208;28;20187;-80
2023/03/28 08:37:12;;;;;;;4.80;2.70;;;20.40;90.50;;;;;;5068044;28;20190;-81
2023/03/28 08:39:41;;;;;;;3.87;2.60;;;20.40;90.30;;;;;;5067763;28;20188;-81
2023/03/28 08:42:30;;;;;;;4.67;2.40;;;20.40;90.30;;;;;;5066623;28;20207;-82
2023/03/28 08:45:26;;;;;;;5.63;2.80;;;20.40;90.10;;;;;;5068424;28;20194;-79
2023/03/28 08:48:00;;;;;;;4.73;3.27;;;20.50;90.00;;;;;;5063248;28;20185;-79
2023/03/28 08:50:56;;;;;;;5.10;2.70;;;20.40;90.00;;;;;;5072742;28;20305;-75
2023/03/28 08:53:36;;;;;;;4.47;2.90;;;20.50;90.00;;;;;;5064121;28;20528;-80
2023/03/28 08:56:07;;;;;;;6.40;2.80;;;20.50;90.00;;;;;;5068081;28;20218;-71
2023/03/28 08:58:49;;;;;;;3.37;2.80;;;20.40;90.00;;;;;;5066204;28;20553;-76
2023/03/28 09:01:20;;;;;;;3.13;2.53;;;20.40;90.00;;;;;;5070973;28;20182;-65
2023/03/28 09:03:51;;;;;;;3.37;2.70;;;20.40;90.20;;;;;;5076104;28;20580;-68
2023/03/28 09:06:23;;;;;;;3.10;2.90;;;20.40;90.30;;;;;;5071397;28;20544;-65
2023/03/28 09:08:59;;;;;;;3.33;3.00;;;20.40;90.40;;;;;;5070816;28;20260;-67
2023/03/28 09:11:50;;;;;;;4.47;3.00;;;20.40;90.50;;;;;;5070460;28;20184;-63
2023/03/28 09:14:36;;;;;;;6.93;3.57;;;20.40;90.50;;;;;;5070393;28;20184;-64
2023/03/28 09:17:39;;;;;;;3.43;3.10;;;20.50;90.70;;;;;;5074777;28;20645;-65
2023/03/28 09:20:28;;;;;;;6.37;3.57;;;20.50;90.80;;;;;;5079032;28;20172;-63
2023/03/28 09:23:10;;;;;;;5.17;3.67;;;20.50;91.00;;;;;;5072691;28;20232;-67
2023/03/28 09:25:53;;;;;;;4.17;3.00;;;20.50;91.00;;;;;;5072139;28;20268;-65
2023/03/28 09:28:26;;;;;;;5.20;3.30;;;20.50;91.10;;;;;;5076761;28;20190;-67
2023/03/28 09:30:55;;;;;;;7.23;3.77;;;20.50;91.20;;;;;;5076132;28;20204;-65
2023/03/28 09:33:30;;;;;;;6.47;3.90;;;20.50;91.40;;;;;;5083933;28;20206;-68
2023/03/28 09:35:58;;;;;;;4.93;4.43;;;20.50;91.40;;;;;;5081519;28;20629;-64
2023/03/28 09:38:45;;;;;;;6.50;4.93;;;20.50;91.60;;;;;;5078132;28;20187;-69
2023/03/28 09:41:34;;;;;;;6.40;5.70;;;20.50;91.60;;;;;;5075404;28;20179;-65
2023/03/28 09:44:03;;;;;;;5.43;4.93;;;20.40;91.60;;;;;;5067039;28;20187;-66
2023/03/28 09:46:31;;;;;;;6.10;4.67;;;20.40;91.60;;;;;;5073852;28;20226;-70
2023/03/28 09:48:58;;;;;;;6.47;4.40;;;20.30;91.70;;;;;;5079265;28;20510;-64
2023/03/28 09:51:26;;;;;;;4.87;4.33;;;20.30;91.90;;;;;;5071001;28;20227;-66
2023/03/28 09:53:54;;;;;;;4.47;4.13;;;20.30;91.80;;;;;;5069260;28;20179;-65
2023/03/28 09:56:37;;;;;;;5.47;4.50;;;20.30;92.00;;;;;;5077566;28;20205;-65
2023/03/28 09:59:10;;;;;;;8.23;4.53;;;20.40;92.20;;;;;;5078717;28;20175;-65
2023/03/28 10:01:42;;;;;;;5.87;4.97;;;20.40;92.20;;;;;;5073726;28;20183;-72
2023/03/28 10:04:18;;;;;;;5.30;4.90;;;20.40;92.20;;;;;;5071241;28;20187;-72
2023/03/28 10:06:47;;;;;;;6.80;5.40;;;20.40;92.30;;;;;;5075018;28;20181;-65
2023/03/28 10:09:30;;;;;;;6.43;4.73;;;20.40;92.20;;;;;;5073490;28;20679;-70
2023/03/28 10:12:01;;;;;;;6.33;4.80;;;20.30;92.20;;;;;;5071856;28;20179;-65
2023/03/28 10:14:31;;;;;;;4.50;4.07;;;20.30;92.20;;;;;;5073718;28;20206;-63
2023/03/28 10:17:05;;;;;;;5.83;4.73;;;20.30;92.10;;;;;;5074832;28;20182;-64
2023/03/28 10:19:37;;;;;;;7.20;4.37;;;20.30;92.20;;;;;;5067223;28;20240;-63
2023/03/28 10:22:07;;;;;;;5.73;4.60;;;20.30;92.10;;;;;;5086097;28;20175;-68
2023/03/28 10:24:36;;;;;;;4.60;4.23;;;20.30;92.20;;;;;;5077976;28;20171;-63
2023/03/28 10:27:15;;;;;;;5.00;4.60;;;20.30;92.30;;;;;;5080422;28;20183;-65
2023/03/28 10:29:44;;;;;;;5.97;5.17;;;20.30;92.30;;;;;;5073201;28;20214;-69
2023/03/28 10:32:25;;;;;;;5.40;4.83;;;20.30;92.40;;;;;;5073664;28;20179;-64
2023/03/28 10:35:03;;;;;;;10.67;5.43;;;20.30;92.40;;;;;;5072954;28;20178;-67
2023/03/28 10:37:32;;;;;;;6.47;5.00;;;20.20;92.40;;;;;;5068329;28;20262;-63
2023/03/28 10:40:17;;;;;;;5.17;4.67;;;20.20;92.40;;;;;;5074690;28;20705;-65
2023/03/28 10:42:48;;;;;;;5.27;4.87;;;20.20;92.40;;;;;;5076013;28;20702;-66
2023/03/28 10:45:37;;;;;;;6.67;5.17;;;20.10;92.40;;;;;;5084074;28;20179;-64
2023/03/28 10:48:19;;;;;;;6.83;5.27;;;20.00;92.40;;;;;;5072545;28;20206;-64
2023/03/28 10:50:50;;;;;;;6.43;5.73;;;20.10;92.50;;;;;;5076588;28;20285;-67
2023/03/28 10:53:32;;;;;;;6.87;5.60;;;20.20;92.60;;;;;;5073127;28;20225;-64
2023/03/28 10:56:21;;;;;;;10.37;6.27;;;20.20;92.60;;;;;;5054957;28;20188;-62
2023/03/28 10:59:07;;;;;;;7.00;5.87;;;20.20;92.60;;;;;;5061453;28;20180;-64
2023/03/28 11:02:00;;;;;;;6.80;6.20;;;20.20;92.60;;;;;;5074031;28;20524;-63
2023/03/28 11:04:31;;;;;;;7.20;6.50;;;20.10;92.50;;;;;;5067173;28;20182;-64
2023/03/28 11:07:11;;;;;;;6.40;5.80;;;20.20;92.60;;;;;;5072218;28;20194;-63
2023/03/28 11:10:13;;;;;;;7.00;6.30;;;20.20;92.60;;;;;;5073314;28;20237;-64
2023/03/28 11:12:54;;;;;;;7.00;6.30;;;20.10;92.60;;;;;;5061623;28;20187;-64
2023/03/28 11:15:40;;;;;;;7.20;6.53;;;20.10;92.60;;;;;;5076239;28;20190;-63
2023/03/28 11:18:26;;;;;;;8.23;7.20;;;20.20;92.60;;;;;;5071325;28;20202;-68
2023/03/28 11:21:19;;;;;;;7.00;6.47;;;20.20;92.70;;;;;;5069947;28;20263;-65
2023/03/28 11:23:59;;;;;;;7.33;6.60;;;20.10;92.60;;;;;;5041483;28;20213;-64
2023/03/28 11:26:52;;;;;;;7.40;6.77;;;20.10;92.60;;;;;;5064128;28;20258;-63
2023/03/28 11:29:34;;;;;;;7.17;6.63;;;20.20;92.70;;;;;;5066044;28;20290;-64
2023/03/28 11:32:21;;;;;;;7.23;6.63;;;20.10;92.60;;;;;;5068932;28;20203;-63
2023/03/28 11:35:00;;;;;;;7.67;7.07;;;20.00;92.30;;;;;;5087696;28;20182;-64
2023/03/28 11:37:51;;;;;;;6.97;6.40;;;20.00;92.30;;;;;;5075888;28;20178;-70
2023/03/28 11:40:39;;;;;;;8.67;6.20;;;20.00;92.00;;;;;;5081131;28;20552;-69
2023/03/28 11:43:09;;;;;;;6.87;6.27;;;20.00;91.90;;;;;;5078096;28;20198;-70
2023/03/28 11:45:50;;;;;;;7.77;7.10;;;20.00;92.00;;;;;;5083591;28;20211;-75
2023/03/28 11:48:51;;;;;;;7.67;6.87;;;20.10;91.90;;;;;;5075465;28;20251;-67
2023/03/28 11:51:44;;;;;;;6.83;6.13;;;20.20;92.00;;;;;;5073425;28;20261;-72
2023/03/28 11:54:33;;;;;;;6.57;6.00;;;20.20;91.80;;;;;;5082141;28;20183;-73
2023/03/28 11:57:20;;;;;;;8.90;6.33;;;20.10;91.60;;;;;;5065201;28;20178;-78
2023/03/28 12:00:10;;;;;;;7.60;5.97;;;20.00;91.30;;;;;;5083496;28;20174;-74
2023/03/28 12:02:55;;;;;;;6.10;5.60;;;20.00;91.20;;;;;;5081565;28;20183;-74
2023/03/28 12:05:42;;;;;;;6.10;5.50;;;20.00;91.20;;;;;;5074050;28;20248;-82
2023/03/28 12:08:17;;;;;;;6.53;6.03;;;20.10;91.10;;;;;;5065619;28;20308;-77
2023/03/28 12:10:49;;;;;;;5.50;5.10;;;20.10;91.10;;;;;;5056037;28;20556;-75
2023/03/28 12:13:54;;;;;;;7.83;5.60;;;20.10;91.00;;;;;;5070203;28;20254;-67
2023/03/28 12:16:36;;;;;;;6.77;5.43;;;20.00;90.70;;;;;;5029064;28;20198;-71
2023/03/28 12:19:09;;;;;;;5.73;5.00;;;20.00;90.60;;;;;;5072780;28;20257;-75
2023/03/28 12:21:46;;;;;;;8.23;5.30;;;20.10;90.70;;;;;;5069414;28;20226;-79
2023/03/28 12:24:34;;;;;;;5.53;5.13;;;20.10;90.70;;;;;;5072654;28;20175;-78
2023/03/28 12:27:17;;;;;;;5.87;5.20;;;20.10;90.70;;;;;;5065189;28;20270;-73
2023/03/28 12:30:07;;;;;;;5.40;4.90;;;20.10;90.60;;;;;;5064543;28;20571;-76
2023/03/28 12:33:01;;;;;;;5.80;5.13;;;20.10;90.50;;;;;;5068812;28;20218;-78
2023/03/28 12:35:46;;;;;;;5.67;5.17;;;20.10;90.50;;;;;;5055596;28;20314;-78
2023/03/28 12:38:41;;;;;;;5.93;5.37;;;20.10;90.50;;;;;;5070407;28;20654;-69
2023/03/28 12:41:15;;;;;;;6.07;5.17;;;20.10;90.50;;;;;;5071584;28;20224;-72
2023/03/28 12:43:59;;;;;;;6.13;5.10;;;20.10;90.70;;;;;;5072091;28;20217;-74
2023/03/28 12:46:45;;;;;;;5.93;5.37;;;20.10;90.60;;;;;;5083997;28;20206;-73
2023/03/28 12:49:27;;;;;;;5.20;4.80;;;20.10;90.60;;;;;;5060923;28;20248;-68
2023/03/28 12:52:00;;;;;;;5.33;4.87;;;20.10;90.60;;;;;;5061618;28;20187;-72
2023/03/28 12:54:33;;;;;;;5.33;4.83;;;20.10;90.80;;;;;;5072154;28;20630;-64
2023/03/28 12:57:09;;;;;;;5.43;4.93;;;20.10;90.90;;;;;;5072119;28;20186;-73
2023/03/28 12:59:40;;;;;;;5.60;5.03;;;20.10;90.90;;;;;;5071891;28;20633;-72
2023/03/28 13:02:16;;;;;;;8.20;5.57;;;20.10;91.00;;;;;;5072582;28;20180;-70
2023/03/28 13:05:30;;;;;;;9.70;5.80;;;20.10;91.10;;;;;;5072196;28;20190;-79
2023/03/28 13:08:08;;;;;;;6.60;5.97;;;20.10;91.20;;;;;;5029529;28;20286;-76
2023/03/28 13:10:41;;;;;;;6.20;5.60;;;20.10;91.40;;;;;;5061267;28;20222;-74
2023/03/28 13:13:18;;;;;;;6.67;5.50;;;20.10;91.40;;;;;;5066118;28;20186;-73
2023/03/28 13:16:22;;;;;;;8.00;5.80;;;20.10;91.60;;;;;;5072073;28;20183;-64
2023/03/28 13:19:11;;;;;;;7.67;5.63;;;20.10;91.70;;;;;;5071031;28;20171;-72
2023/03/28 13:21:48;;;;;;;9.00;6.03;;;20.00;91.80;;;;;;5070983;28;20187;-72
2023/03/28 13:24:29;;;;;;;7.03;6.33;;;20.00;91.90;;;;;;5067337;28;20261;-67